sensor_id;sensor_type;location;lat;lon;timestamp;temperature;humidity
54124;DHT22;55741;53.252;5.788;2022-12-17T00:00:46;-1.00;99.90
54124;DHT22;55741;53.252;5.788;2022-12-17T00:03:31;-0.90;99.90
54124;DHT22;55741;53.252;5.788;2022-12-17T00:06:16;-0.90;99.90
54124;DHT22;55741;53.252;5.788;2022-12-17T00:09:03;-0.90;99.90
54124;DHT22;55741;53.252;5.788;2022-12-17T00:11:49;-0.80;99.90
54124;DHT22;55741;53.252;5.788;2022-12-17T00:14:39;-0.90;99.90
54124;DHT22;55741;53.252;5.788;2022-12-17T00:17:23;-0.90;99.90
54124;DHT22;55741;53.252;5.788;2022-12-17T00:20:08;-0.90;99.90
54124;DHT22;55741;53.252;5.788;2022-12-17T00:23:01;-0.90;99.90
54124;DHT22;55741;53.252;5.788;2022-12-17T00:25:53;-1.00;99.90
54124;DHT22;55741;53.252;5.788;2022-12-17T00:28:38;-1.00;99.90
54124;DHT22;55741;53.252;5.788;2022-12-17T00:31:25;-1.00;99.90
54124;DHT22;55741;53.252;5.788;2022-12-17T00:34:10;-1.00;99.90
54124;DHT22;55741;53.252;5.788;2022-12-17T00:36:55;-1.00;99.90
54124;DHT22;55741;53.252;5.788;2022-12-17T00:39:40;-1.00;99.90
54124;DHT22;55741;53.252;5.788;2022-12-17T00:42:25;-1.10;99.90
54124;DHT22;55741;53.252;5.788;2022-12-17T00:45:10;-1.10;99.90
54124;DHT22;55741;53.252;5.788;2022-12-17T00:47:54;-1.10;99.90
54124;DHT22;55741;53.252;5.788;2022-12-17T00:50:39;-1.10;99.90
54124;DHT22;55741;53.252;5.788;2022-12-17T00:53:23;-1.10;99.90
54124;DHT22;55741;53.252;5.788;2022-12-17T00:56:08;-1.10;99.90
54124;DHT22;55741;53.252;5.788;2022-12-17T00:58:52;-1.10;99.90
54124;DHT22;55741;53.252;5.788;2022-12-17T01:01:38;-1.10;99.90
54124;DHT22;55741;53.252;5.788;2022-12-17T01:04:22;-1.00;99.90
54124;DHT22;55741;53.252;5.788;2022-12-17T01:07:07;-1.10;99.90
54124;DHT22;55741;53.252;5.788;2022-12-17T01:09:51;-1.10;99.90
54124;DHT22;55741;53.252;5.788;2022-12-17T01:12:36;-1.10;99.90
54124;DHT22;55741;53.252;5.788;2022-12-17T01:15:31;-1.10;99.90
54124;DHT22;55741;53.252;5.788;2022-12-17T01:18:17;-1.10;99.90
54124;DHT22;55741;53.252;5.788;2022-12-17T01:21:02;-1.10;99.90
54124;DHT22;55741;53.252;5.788;2022-12-17T01:23:48;-1.10;99.90
54124;DHT22;55741;53.252;5.788;2022-12-17T01:26:32;-1.10;99.90
54124;DHT22;55741;53.252;5.788;2022-12-17T01:29:17;-1.10;99.90
54124;DHT22;55741;53.252;5.788;2022-12-17T01:32:02;-1.10;99.90
54124;DHT22;55741;53.252;5.788;2022-12-17T01:34:46;-1.10;99.90
54124;DHT22;55741;53.252;5.788;2022-12-17T01:37:31;-1.10;99.90
54124;DHT22;55741;53.252;5.788;2022-12-17T01:40:15;-1.20;99.90
54124;DHT22;55741;53.252;5.788;2022-12-17T01:43:08;-1.20;99.90
54124;DHT22;55741;53.252;5.788;2022-12-17T01:45:54;-1.20;99.90
54124;DHT22;55741;53.252;5.788;2022-12-17T01:48:41;-1.20;99.90
54124;DHT22;55741;53.252;5.788;2022-12-17T01:51:30;-1.10;99.90
54124;DHT22;55741;53.252;5.788;2022-12-17T01:54:15;-1.10;99.90
54124;DHT22;55741;53.252;5.788;2022-12-17T01:57:01;-1.20;99.90
54124;DHT22;55741;53.252;5.788;2022-12-17T01:59:52;-1.20;99.90
54124;DHT22;55741;53.252;5.788;2022-12-17T02:02:39;-1.10;99.90
54124;DHT22;55741;53.252;5.788;2022-12-17T02:08:35;-1.10;99.90
54124;DHT22;55741;53.252;5.788;2022-12-17T02:11:44;-1.10;99.90
54124;DHT22;55741;53.252;5.788;2022-12-17T02:14:43;-1.10;99.90
54124;DHT22;55741;53.252;5.788;2022-12-17T02:17:37;-1.10;99.90
54124;DHT22;55741;53.252;5.788;2022-12-17T02:20:31;-1.00;99.90
54124;DHT22;55741;53.252;5.788;2022-12-17T02:26:45;-1.00;99.90
54124;DHT22;55741;53.252;5.788;2022-12-17T02:29:40;-1.00;99.90
54124;DHT22;55741;53.252;5.788;2022-12-17T02:32:26;-1.00;99.90
54124;DHT22;55741;53.252;5.788;2022-12-17T02:35:16;-1.00;99.90
54124;DHT22;55741;53.252;5.788;2022-12-17T02:38:01;-1.00;99.90
54124;DHT22;55741;53.252;5.788;2022-12-17T02:40:46;-0.90;99.90
54124;DHT22;55741;53.252;5.788;2022-12-17T02:43:31;-0.90;99.90
54124;DHT22;55741;53.252;5.788;2022-12-17T02:46:18;-0.90;99.90
54124;DHT22;55741;53.252;5.788;2022-12-17T02:49:03;-0.90;99.90
54124;DHT22;55741;53.252;5.788;2022-12-17T02:51:48;-0.90;99.90
54124;DHT22;55741;53.252;5.788;2022-12-17T02:54:34;-0.90;99.90
54124;DHT22;55741;53.252;5.788;2022-12-17T02:57:19;-0.90;99.90
54124;DHT22;55741;53.252;5.788;2022-12-17T03:00:04;-0.90;99.90
54124;DHT22;55741;53.252;5.788;2022-12-17T03:03:09;-1.00;99.90
54124;DHT22;55741;53.252;5.788;2022-12-17T03:05:53;-1.00;99.90
54124;DHT22;55741;53.252;5.788;2022-12-17T03:08:43;-1.00;99.90
54124;DHT22;55741;53.252;5.788;2022-12-17T03:11:31;-1.00;99.90
54124;DHT22;55741;53.252;5.788;2022-12-17T03:14:15;-1.00;99.90
54124;DHT22;55741;53.252;5.788;2022-12-17T03:17:00;-1.00;99.90
54124;DHT22;55741;53.252;5.788;2022-12-17T03:19:44;-1.00;99.90
54124;DHT22;55741;53.252;5.788;2022-12-17T03:22:29;-1.00;99.90
54124;DHT22;55741;53.252;5.788;2022-12-17T03:25:14;-0.90;99.90
54124;DHT22;55741;53.252;5.788;2022-12-17T03:28:08;-1.00;99.90
54124;DHT22;55741;53.252;5.788;2022-12-17T03:30:52;-1.00;99.90
54124;DHT22;55741;53.252;5.788;2022-12-17T03:33:37;-1.00;99.90
54124;DHT22;55741;53.252;5.788;2022-12-17T03:36:21;-1.00;99.90
54124;DHT22;55741;53.252;5.788;2022-12-17T03:39:14;-1.00;99.90
54124;DHT22;55741;53.252;5.788;2022-12-17T03:42:01;-1.00;99.90
54124;DHT22;55741;53.252;5.788;2022-12-17T03:44:46;-1.00;99.90
54124;DHT22;55741;53.252;5.788;2022-12-17T03:47:30;-0.90;99.90
54124;DHT22;55741;53.252;5.788;2022-12-17T03:50:15;-1.00;99.90
54124;DHT22;55741;53.252;5.788;2022-12-17T03:53:02;-1.00;99.90
54124;DHT22;55741;53.252;5.788;2022-12-17T03:55:47;-1.00;99.90
54124;DHT22;55741;53.252;5.788;2022-12-17T03:58:40;-1.00;99.90
54124;DHT22;55741;53.252;5.788;2022-12-17T04:01:25;-1.00;99.90
54124;DHT22;55741;53.252;5.788;2022-12-17T04:04:10;-1.00;99.90
54124;DHT22;55741;53.252;5.788;2022-12-17T04:06:54;-1.00;99.90
54124;DHT22;55741;53.252;5.788;2022-12-17T04:09:38;-1.00;99.90
54124;DHT22;55741;53.252;5.788;2022-12-17T04:12:23;-1.10;99.90
54124;DHT22;55741;53.252;5.788;2022-12-17T04:15:08;-1.00;99.90
54124;DHT22;55741;53.252;5.788;2022-12-17T04:17:53;-1.10;99.90
54124;DHT22;55741;53.252;5.788;2022-12-17T04:20:37;-1.10;99.90
54124;DHT22;55741;53.252;5.788;2022-12-17T04:23:22;-1.10;99.90
54124;DHT22;55741;53.252;5.788;2022-12-17T04:26:06;-1.10;99.90
54124;DHT22;55741;53.252;5.788;2022-12-17T04:28:52;-1.10;99.90
54124;DHT22;55741;53.252;5.788;2022-12-17T04:31:37;-1.10;99.90
54124;DHT22;55741;53.252;5.788;2022-12-17T04:34:22;-1.10;99.90
54124;DHT22;55741;53.252;5.788;2022-12-17T04:37:20;-1.10;99.90
54124;DHT22;55741;53.252;5.788;2022-12-17T04:40:05;-1.10;99.90
54124;DHT22;55741;53.252;5.788;2022-12-17T04:42:52;-1.10;99.90
54124;DHT22;55741;53.252;5.788;2022-12-17T04:45:36;-1.20;99.90
54124;DHT22;55741;53.252;5.788;2022-12-17T04:48:25;-1.10;99.90
54124;DHT22;55741;53.252;5.788;2022-12-17T04:51:09;-1.10;99.90
54124;DHT22;55741;53.252;5.788;2022-12-17T04:54:00;-1.10;99.90
54124;DHT22;55741;53.252;5.788;2022-12-17T04:56:45;-1.10;99.90
54124;DHT22;55741;53.252;5.788;2022-12-17T04:59:30;-1.10;99.90
54124;DHT22;55741;53.252;5.788;2022-12-17T05:02:14;-1.00;99.90
54124;DHT22;55741;53.252;5.788;2022-12-17T05:04:59;-1.10;99.90
54124;DHT22;55741;53.252;5.788;2022-12-17T05:07:44;-1.10;99.90
54124;DHT22;55741;53.252;5.788;2022-12-17T05:10:29;-1.10;99.90
54124;DHT22;55741;53.252;5.788;2022-12-17T05:13:14;-1.10;99.90
54124;DHT22;55741;53.252;5.788;2022-12-17T05:15:59;-1.10;99.90
54124;DHT22;55741;53.252;5.788;2022-12-17T05:18:43;-1.10;99.90
54124;DHT22;55741;53.252;5.788;2022-12-17T05:21:28;-1.10;99.90
54124;DHT22;55741;53.252;5.788;2022-12-17T05:24:12;-1.10;99.90
54124;DHT22;55741;53.252;5.788;2022-12-17T05:26:57;-1.10;99.90
54124;DHT22;55741;53.252;5.788;2022-12-17T05:29:45;-1.00;99.90
54124;DHT22;55741;53.252;5.788;2022-12-17T05:33:00;-1.10;99.90
54124;DHT22;55741;53.252;5.788;2022-12-17T05:36:05;-1.10;99.90
54124;DHT22;55741;53.252;5.788;2022-12-17T05:39:09;-1.10;99.90
54124;DHT22;55741;53.252;5.788;2022-12-17T05:42:14;-1.10;99.90
54124;DHT22;55741;53.252;5.788;2022-12-17T05:45:00;-1.10;99.90
54124;DHT22;55741;53.252;5.788;2022-12-17T05:47:44;-1.10;99.90
54124;DHT22;55741;53.252;5.788;2022-12-17T05:50:28;-1.10;99.90
54124;DHT22;55741;53.252;5.788;2022-12-17T05:53:13;-1.10;99.90
54124;DHT22;55741;53.252;5.788;2022-12-17T05:55:58;-1.10;99.90
54124;DHT22;55741;53.252;5.788;2022-12-17T05:58:42;-1.10;99.90
54124;DHT22;55741;53.252;5.788;2022-12-17T06:01:26;-1.10;99.90
54124;DHT22;55741;53.252;5.788;2022-12-17T06:04:12;-1.10;99.90
54124;DHT22;55741;53.252;5.788;2022-12-17T06:06:56;-1.10;99.90
54124;DHT22;55741;53.252;5.788;2022-12-17T06:09:40;-1.10;99.90
54124;DHT22;55741;53.252;5.788;2022-12-17T06:12:29;-1.10;99.90
54124;DHT22;55741;53.252;5.788;2022-12-17T06:15:14;-1.10;99.90
54124;DHT22;55741;53.252;5.788;2022-12-17T06:18:01;-1.00;99.90
54124;DHT22;55741;53.252;5.788;2022-12-17T06:20:47;-1.10;99.90
54124;DHT22;55741;53.252;5.788;2022-12-17T06:23:31;-1.00;99.90
54124;DHT22;55741;53.252;5.788;2022-12-17T06:26:20;-1.00;99.90
54124;DHT22;55741;53.252;5.788;2022-12-17T06:29:05;-1.00;99.90
54124;DHT22;55741;53.252;5.788;2022-12-17T06:31:51;-1.00;99.90
54124;DHT22;55741;53.252;5.788;2022-12-17T06:34:35;-1.00;99.90
54124;DHT22;55741;53.252;5.788;2022-12-17T06:37:20;-1.00;99.90
54124;DHT22;55741;53.252;5.788;2022-12-17T06:40:07;-1.00;99.90
54124;DHT22;55741;53.252;5.788;2022-12-17T06:43:00;-1.00;99.90
54124;DHT22;55741;53.252;5.788;2022-12-17T06:45:44;-1.00;99.90
54124;DHT22;55741;53.252;5.788;2022-12-17T06:48:29;-1.00;99.90
54124;DHT22;55741;53.252;5.788;2022-12-17T06:51:13;-1.00;99.90
54124;DHT22;55741;53.252;5.788;2022-12-17T06:53:58;-1.00;99.90
54124;DHT22;55741;53.252;5.788;2022-12-17T06:56:42;-1.00;99.90
54124;DHT22;55741;53.252;5.788;2022-12-17T06:59:27;-1.00;99.90
54124;DHT22;55741;53.252;5.788;2022-12-17T07:02:11;-1.00;99.90
54124;DHT22;55741;53.252;5.788;2022-12-17T07:04:56;-1.00;99.90
54124;DHT22;55741;53.252;5.788;2022-12-17T07:07:40;-1.00;99.90
54124;DHT22;55741;53.252;5.788;2022-12-17T07:10:25;-0.90;99.90
54124;DHT22;55741;53.252;5.788;2022-12-17T07:13:09;-1.00;99.90
54124;DHT22;55741;53.252;5.788;2022-12-17T07:15:57;-1.00;99.90
54124;DHT22;55741;53.252;5.788;2022-12-17T07:18:41;-1.00;99.90
54124;DHT22;55741;53.252;5.788;2022-12-17T07:21:26;-0.90;99.90
54124;DHT22;55741;53.252;5.788;2022-12-17T07:24:11;-1.00;99.90
54124;DHT22;55741;53.252;5.788;2022-12-17T07:26:56;-0.90;99.90
54124;DHT22;55741;53.252;5.788;2022-12-17T07:29:46;-0.80;99.90
54124;DHT22;55741;53.252;5.788;2022-12-17T07:32:32;-0.90;99.90
54124;DHT22;55741;53.252;5.788;2022-12-17T07:35:17;-0.90;99.90
54124;DHT22;55741;53.252;5.788;2022-12-17T07:38:03;-0.90;99.90
54124;DHT22;55741;53.252;5.788;2022-12-17T07:40:47;-1.00;99.90
54124;DHT22;55741;53.252;5.788;2022-12-17T07:43:32;-1.00;99.90
54124;DHT22;55741;53.252;5.788;2022-12-17T07:46:17;-1.00;99.90
54124;DHT22;55741;53.252;5.788;2022-12-17T07:49:06;-1.00;99.90
54124;DHT22;55741;53.252;5.788;2022-12-17T07:51:50;-1.00;99.90
54124;DHT22;55741;53.252;5.788;2022-12-17T07:54:52;-1.00;99.90
54124;DHT22;55741;53.252;5.788;2022-12-17T07:57:37;-1.10;99.90
54124;DHT22;55741;53.252;5.788;2022-12-17T08:00:21;-1.10;99.90
54124;DHT22;55741;53.252;5.788;2022-12-17T08:03:06;-1.10;99.90
54124;DHT22;55741;53.252;5.788;2022-12-17T08:05:50;-1.10;99.90
54124;DHT22;55741;53.252;5.788;2022-12-17T08:08:35;-1.10;99.90
54124;DHT22;55741;53.252;5.788;2022-12-17T08:11:20;-1.10;99.90
54124;DHT22;55741;53.252;5.788;2022-12-17T08:14:04;-1.10;99.90
54124;DHT22;55741;53.252;5.788;2022-12-17T08:16:51;-1.10;99.90
54124;DHT22;55741;53.252;5.788;2022-12-17T08:19:35;-1.10;99.90
54124;DHT22;55741;53.252;5.788;2022-12-17T08:22:19;-1.10;99.90
54124;DHT22;55741;53.252;5.788;2022-12-17T08:25:04;-1.10;99.90
54124;DHT22;55741;53.252;5.788;2022-12-17T08:28:03;-1.10;99.90
54124;DHT22;55741;53.252;5.788;2022-12-17T08:30:48;-1.20;99.90
54124;DHT22;55741;53.252;5.788;2022-12-17T08:33:34;-1.10;99.90
54124;DHT22;55741;53.252;5.788;2022-12-17T08:36:19;-1.20;99.90
54124;DHT22;55741;53.252;5.788;2022-12-17T08:39:03;-1.20;99.90
54124;DHT22;55741;53.252;5.788;2022-12-17T08:41:48;-1.20;99.90
54124;DHT22;55741;53.252;5.788;2022-12-17T08:44:32;-1.10;99.90
54124;DHT22;55741;53.252;5.788;2022-12-17T08:47:17;-1.10;99.90
54124;DHT22;55741;53.252;5.788;2022-12-17T08:50:02;-1.10;99.90
54124;DHT22;55741;53.252;5.788;2022-12-17T08:52:47;-1.10;99.90
54124;DHT22;55741;53.252;5.788;2022-12-17T08:55:31;-1.10;99.90
54124;DHT22;55741;53.252;5.788;2022-12-17T08:58:16;-1.10;99.90
54124;DHT22;55741;53.252;5.788;2022-12-17T09:01:01;-1.00;99.90
54124;DHT22;55741;53.252;5.788;2022-12-17T09:03:46;-1.10;99.90
54124;DHT22;55741;53.252;5.788;2022-12-17T09:06:33;-1.10;99.90
54124;DHT22;55741;53.252;5.788;2022-12-17T09:09:17;-1.10;99.90
54124;DHT22;55741;53.252;5.788;2022-12-17T09:12:02;-1.00;99.90
54124;DHT22;55741;53.252;5.788;2022-12-17T09:14:46;-1.00;99.90
54124;DHT22;55741;53.252;5.788;2022-12-17T09:17:31;-1.00;99.90
54124;DHT22;55741;53.252;5.788;2022-12-17T09:20:15;-1.00;99.90
54124;DHT22;55741;53.252;5.788;2022-12-17T09:23:00;-1.00;99.90
54124;DHT22;55741;53.252;5.788;2022-12-17T09:25:52;-1.00;99.90
54124;DHT22;55741;53.252;5.788;2022-12-17T09:28:36;-1.00;99.90
54124;DHT22;55741;53.252;5.788;2022-12-17T09:31:21;-1.00;99.90
54124;DHT22;55741;53.252;5.788;2022-12-17T09:34:07;-0.90;99.90
54124;DHT22;55741;53.252;5.788;2022-12-17T09:36:52;-0.90;99.90
54124;DHT22;55741;53.252;5.788;2022-12-17T09:39:36;-0.90;99.90
54124;DHT22;55741;53.252;5.788;2022-12-17T09:42:22;-0.80;99.90
54124;DHT22;55741;53.252;5.788;2022-12-17T09:45:35;-0.80;99.90
54124;DHT22;55741;53.252;5.788;2022-12-17T09:48:23;-0.80;99.90
54124;DHT22;55741;53.252;5.788;2022-12-17T09:51:36;-0.70;99.90
54124;DHT22;55741;53.252;5.788;2022-12-17T09:54:26;-0.70;99.90
54124;DHT22;55741;53.252;5.788;2022-12-17T09:57:17;-0.50;99.90
54124;DHT22;55741;53.252;5.788;2022-12-17T10:00:25;-0.50;99.90
54124;DHT22;55741;53.252;5.788;2022-12-17T10:03:18;-0.60;99.90
54124;DHT22;55741;53.252;5.788;2022-12-17T10:06:16;-0.60;99.90
54124;DHT22;55741;53.252;5.788;2022-12-17T10:09:12;-0.50;99.90
54124;DHT22;55741;53.252;5.788;2022-12-17T10:12:07;-0.50;99.90
54124;DHT22;55741;53.252;5.788;2022-12-17T10:14:54;-0.50;99.90
54124;DHT22;55741;53.252;5.788;2022-12-17T10:17:38;-0.40;99.90
54124;DHT22;55741;53.252;5.788;2022-12-17T10:23:29;-0.40;99.90
54124;DHT22;55741;53.252;5.788;2022-12-17T10:26:16;-0.40;99.90
54124;DHT22;55741;53.252;5.788;2022-12-17T10:29:19;-0.30;99.90
54124;DHT22;55741;53.252;5.788;2022-12-17T10:38:00;-0.20;99.90
54124;DHT22;55741;53.252;5.788;2022-12-17T10:40:45;-0.20;99.90
54124;DHT22;55741;53.252;5.788;2022-12-17T10:43:37;-0.20;99.90
54124;DHT22;55741;53.252;5.788;2022-12-17T10:46:39;-0.20;99.90
54124;DHT22;55741;53.252;5.788;2022-12-17T10:49:24;-0.10;99.90
54124;DHT22;55741;53.252;5.788;2022-12-17T10:55:27;-0.10;99.90
54124;DHT22;55741;53.252;5.788;2022-12-17T10:58:15;0.00;99.90
54124;DHT22;55741;53.252;5.788;2022-12-17T11:01:01;0.00;99.90
54124;DHT22;55741;53.252;5.788;2022-12-17T11:03:49;0.10;99.90
54124;DHT22;55741;53.252;5.788;2022-12-17T11:06:52;0.10;99.90
54124;DHT22;55741;53.252;5.788;2022-12-17T11:09:42;0.20;99.90
54124;DHT22;55741;53.252;5.788;2022-12-17T11:12:49;0.30;99.90
54124;DHT22;55741;53.252;5.788;2022-12-17T11:15:50;0.40;99.90
54124;DHT22;55741;53.252;5.788;2022-12-17T11:18:41;0.40;99.90
54124;DHT22;55741;53.252;5.788;2022-12-17T11:21:33;0.50;99.90
54124;DHT22;55741;53.252;5.788;2022-12-17T11:24:34;0.50;99.90
54124;DHT22;55741;53.252;5.788;2022-12-17T11:27:23;0.60;99.90
54124;DHT22;55741;53.252;5.788;2022-12-17T11:30:13;0.60;99.90
54124;DHT22;55741;53.252;5.788;2022-12-17T11:36:46;0.70;99.90
54124;DHT22;55741;53.252;5.788;2022-12-17T11:39:46;0.70;99.90
54124;DHT22;55741;53.252;5.788;2022-12-17T11:42:55;0.80;99.90
54124;DHT22;55741;53.252;5.788;2022-12-17T11:48:47;0.90;99.90
54124;DHT22;55741;53.252;5.788;2022-12-17T11:51:43;0.90;99.90
54124;DHT22;55741;53.252;5.788;2022-12-17T11:57:27;0.90;99.90
54124;DHT22;55741;53.252;5.788;2022-12-17T12:00:17;1.00;99.90
54124;DHT22;55741;53.252;5.788;2022-12-17T12:06:19;1.00;99.90
54124;DHT22;55741;53.252;5.788;2022-12-17T12:09:27;1.10;99.90
54124;DHT22;55741;53.252;5.788;2022-12-17T12:15:44;1.20;99.90
54124;DHT22;55741;53.252;5.788;2022-12-17T12:24:35;1.20;99.90
54124;DHT22;55741;53.252;5.788;2022-12-17T12:30:24;1.10;99.90
54124;DHT22;55741;53.252;5.788;2022-12-17T12:36:27;1.20;99.90
54124;DHT22;55741;53.252;5.788;2022-12-17T12:39:12;1.20;99.90
54124;DHT22;55741;53.252;5.788;2022-12-17T12:42:19;1.20;99.90
54124;DHT22;55741;53.252;5.788;2022-12-17T12:48:45;1.20;99.90
54124;DHT22;55741;53.252;5.788;2022-12-17T12:51:36;1.20;99.90
54124;DHT22;55741;53.252;5.788;2022-12-17T12:58:01;1.20;99.90
54124;DHT22;55741;53.252;5.788;2022-12-17T13:00:54;1.20;99.90
54124;DHT22;55741;53.252;5.788;2022-12-17T13:03:49;1.20;99.90
54124;DHT22;55741;53.252;5.788;2022-12-17T13:06:40;1.20;99.90
54124;DHT22;55741;53.252;5.788;2022-12-17T13:11:46;1.10;99.90
54124;DHT22;55741;53.252;5.788;2022-12-17T13:21:47;1.10;99.90
54124;DHT22;55741;53.252;5.788;2022-12-17T13:24:26;1.10;99.90
54124;DHT22;55741;53.252;5.788;2022-12-17T13:26:59;1.10;99.90
54124;DHT22;55741;53.252;5.788;2022-12-17T13:29:31;1.10;99.90
54124;DHT22;55741;53.252;5.788;2022-12-17T13:35:00;1.20;99.90
54124;DHT22;55741;53.252;5.788;2022-12-17T13:42:49;1.10;99.90
54124;DHT22;55741;53.252;5.788;2022-12-17T13:45:20;1.10;99.90
54124;DHT22;55741;53.252;5.788;2022-12-17T13:47:54;1.10;99.90
54124;DHT22;55741;53.252;5.788;2022-12-17T13:50:24;1.10;99.90
54124;DHT22;55741;53.252;5.788;2022-12-17T13:53:09;1.10;99.90
54124;DHT22;55741;53.252;5.788;2022-12-17T13:55:37;1.10;99.90
54124;DHT22;55741;53.252;5.788;2022-12-17T13:58:03;1.00;99.90
54124;DHT22;55741;53.252;5.788;2022-12-17T14:00:29;1.00;99.90
54124;DHT22;55741;53.252;5.788;2022-12-17T14:03:19;1.00;99.90
54124;DHT22;55741;53.252;5.788;2022-12-17T14:05:50;0.90;99.90
54124;DHT22;55741;53.252;5.788;2022-12-17T14:08:17;0.90;99.90
54124;DHT22;55741;53.252;5.788;2022-12-17T14:10:50;0.90;99.90
54124;DHT22;55741;53.252;5.788;2022-12-17T14:13:17;0.80;99.90
54124;DHT22;55741;53.252;5.788;2022-12-17T14:15:46;0.80;99.90
54124;DHT22;55741;53.252;5.788;2022-12-17T14:18:15;0.70;99.90
54124;DHT22;55741;53.252;5.788;2022-12-17T14:20:45;0.70;99.90
54124;DHT22;55741;53.252;5.788;2022-12-17T14:23:24;0.70;99.90
54124;DHT22;55741;53.252;5.788;2022-12-17T14:25:51;0.70;99.90
54124;DHT22;55741;53.252;5.788;2022-12-17T14:30:50;0.70;99.90
54124;DHT22;55741;53.252;5.788;2022-12-17T14:33:27;0.70;99.90
54124;DHT22;55741;53.252;5.788;2022-12-17T14:35:54;0.60;99.90
54124;DHT22;55741;53.252;5.788;2022-12-17T14:38:23;0.60;99.90
54124;DHT22;55741;53.252;5.788;2022-12-17T14:40:50;0.60;99.90
54124;DHT22;55741;53.252;5.788;2022-12-17T14:43:28;0.60;99.90
54124;DHT22;55741;53.252;5.788;2022-12-17T14:45:59;0.50;99.90
54124;DHT22;55741;53.252;5.788;2022-12-17T14:48:43;0.40;99.90
54124;DHT22;55741;53.252;5.788;2022-12-17T14:51:35;0.50;99.90
54124;DHT22;55741;53.252;5.788;2022-12-17T14:54:47;0.40;99.90
54124;DHT22;55741;53.252;5.788;2022-12-17T14:57:21;0.40;99.90
54124;DHT22;55741;53.252;5.788;2022-12-17T14:59:51;0.40;99.90
54124;DHT22;55741;53.252;5.788;2022-12-17T15:02:26;0.40;99.90
54124;DHT22;55741;53.252;5.788;2022-12-17T15:04:59;0.30;99.90
54124;DHT22;55741;53.252;5.788;2022-12-17T15:07:32;0.30;99.90
54124;DHT22;55741;53.252;5.788;2022-12-17T15:10:16;0.30;99.90
54124;DHT22;55741;53.252;5.788;2022-12-17T15:12:44;0.30;99.90
54124;DHT22;55741;53.252;5.788;2022-12-17T15:15:14;0.20;99.90
54124;DHT22;55741;53.252;5.788;2022-12-17T15:17:42;0.20;99.90
54124;DHT22;55741;53.252;5.788;2022-12-17T15:20:15;0.10;99.90
54124;DHT22;55741;53.252;5.788;2022-12-17T15:22:43;0.10;99.90
54124;DHT22;55741;53.252;5.788;2022-12-17T15:25:13;0.10;99.90
54124;DHT22;55741;53.252;5.788;2022-12-17T15:27:39;0.10;99.90
54124;DHT22;55741;53.252;5.788;2022-12-17T15:30:06;0.10;99.90
54124;DHT22;55741;53.252;5.788;2022-12-17T15:32:35;0.10;99.90
54124;DHT22;55741;53.252;5.788;2022-12-17T15:35:01;0.00;99.90
54124;DHT22;55741;53.252;5.788;2022-12-17T15:37:29;0.00;99.90
54124;DHT22;55741;53.252;5.788;2022-12-17T15:39:57;0.00;99.90
54124;DHT22;55741;53.252;5.788;2022-12-17T15:42:23;-0.10;99.90
54124;DHT22;55741;53.252;5.788;2022-12-17T15:45:08;-0.10;99.90
54124;DHT22;55741;53.252;5.788;2022-12-17T15:47:34;-0.20;99.90
54124;DHT22;55741;53.252;5.788;2022-12-17T15:49:59;-0.20;99.90
54124;DHT22;55741;53.252;5.788;2022-12-17T15:52:25;-0.20;99.90
54124;DHT22;55741;53.252;5.788;2022-12-17T15:54:51;-0.20;99.90
54124;DHT22;55741;53.252;5.788;2022-12-17T15:57:17;-0.30;99.90
54124;DHT22;55741;53.252;5.788;2022-12-17T15:59:43;-0.30;99.90
54124;DHT22;55741;53.252;5.788;2022-12-17T16:02:10;-0.30;99.90
54124;DHT22;55741;53.252;5.788;2022-12-17T16:04:36;-0.30;99.90
54124;DHT22;55741;53.252;5.788;2022-12-17T16:07:03;-0.30;99.90
54124;DHT22;55741;53.252;5.788;2022-12-17T16:09:29;-0.30;99.90
54124;DHT22;55741;53.252;5.788;2022-12-17T16:11:56;-0.30;99.90
54124;DHT22;55741;53.252;5.788;2022-12-17T16:14:22;-0.30;99.90
54124;DHT22;55741;53.252;5.788;2022-12-17T16:16:50;-0.30;99.90
54124;DHT22;55741;53.252;5.788;2022-12-17T16:19:17;-0.30;99.90
54124;DHT22;55741;53.252;5.788;2022-12-17T16:21:43;-0.30;99.90
54124;DHT22;55741;53.252;5.788;2022-12-17T16:24:09;-0.30;99.90
54124;DHT22;55741;53.252;5.788;2022-12-17T16:26:36;-0.30;99.90
54124;DHT22;55741;53.252;5.788;2022-12-17T16:29:02;-0.30;99.90
54124;DHT22;55741;53.252;5.788;2022-12-17T16:31:28;-0.30;99.90
54124;DHT22;55741;53.252;5.788;2022-12-17T16:33:54;-0.40;99.90
54124;DHT22;55741;53.252;5.788;2022-12-17T16:36:20;-0.40;99.90
54124;DHT22;55741;53.252;5.788;2022-12-17T16:38:49;-0.40;99.90
54124;DHT22;55741;53.252;5.788;2022-12-17T16:41:17;-0.40;99.90
54124;DHT22;55741;53.252;5.788;2022-12-17T16:43:44;-0.50;99.90
54124;DHT22;55741;53.252;5.788;2022-12-17T16:46:29;-0.50;99.90
54124;DHT22;55741;53.252;5.788;2022-12-17T16:48:57;-0.50;99.90
54124;DHT22;55741;53.252;5.788;2022-12-17T16:51:25;-0.50;99.90
54124;DHT22;55741;53.252;5.788;2022-12-17T16:53:52;-0.50;99.90
54124;DHT22;55741;53.252;5.788;2022-12-17T16:56:22;-0.60;99.90
54124;DHT22;55741;53.252;5.788;2022-12-17T16:58:48;-0.60;99.90
54124;DHT22;55741;53.252;5.788;2022-12-17T17:01:25;-0.60;99.90
54124;DHT22;55741;53.252;5.788;2022-12-17T17:03:51;-0.60;99.90
54124;DHT22;55741;53.252;5.788;2022-12-17T17:06:18;-0.60;99.90
54124;DHT22;55741;53.252;5.788;2022-12-17T17:08:44;-0.70;99.90
54124;DHT22;55741;53.252;5.788;2022-12-17T17:11:16;-0.70;99.90
54124;DHT22;55741;53.252;5.788;2022-12-17T17:13:43;-0.70;99.90
54124;DHT22;55741;53.252;5.788;2022-12-17T17:16:10;-0.70;99.90
54124;DHT22;55741;53.252;5.788;2022-12-17T17:18:36;-0.70;99.90
54124;DHT22;55741;53.252;5.788;2022-12-17T17:23:45;-0.80;99.90
54124;DHT22;55741;53.252;5.788;2022-12-17T17:26:12;-0.80;99.90
54124;DHT22;55741;53.252;5.788;2022-12-17T17:28:38;-0.70;99.90
54124;DHT22;55741;53.252;5.788;2022-12-17T17:31:06;-0.80;99.90
54124;DHT22;55741;53.252;5.788;2022-12-17T17:33:35;-0.80;99.90
54124;DHT22;55741;53.252;5.788;2022-12-17T17:36:05;-0.80;99.90
54124;DHT22;55741;53.252;5.788;2022-12-17T17:38:33;-0.80;99.90
54124;DHT22;55741;53.252;5.788;2022-12-17T17:40:59;-0.80;99.90
54124;DHT22;55741;53.252;5.788;2022-12-17T17:43:27;-0.80;99.90
54124;DHT22;55741;53.252;5.788;2022-12-17T17:45:52;-0.90;99.90
54124;DHT22;55741;53.252;5.788;2022-12-17T17:48:20;-0.90;99.90
54124;DHT22;55741;53.252;5.788;2022-12-17T17:50:57;-1.00;99.90
54124;DHT22;55741;53.252;5.788;2022-12-17T17:53:23;-0.90;99.90
54124;DHT22;55741;53.252;5.788;2022-12-17T17:55:49;-1.00;99.90
54124;DHT22;55741;53.252;5.788;2022-12-17T17:58:15;-1.00;99.90
54124;DHT22;55741;53.252;5.788;2022-12-17T18:00:41;-1.00;99.90
54124;DHT22;55741;53.252;5.788;2022-12-17T18:03:07;-1.00;99.90
54124;DHT22;55741;53.252;5.788;2022-12-17T18:05:37;-1.00;99.90
54124;DHT22;55741;53.252;5.788;2022-12-17T18:08:03;-1.00;99.90
54124;DHT22;55741;53.252;5.788;2022-12-17T18:10:30;-1.00;99.90
54124;DHT22;55741;53.252;5.788;2022-12-17T18:13:05;-1.00;99.90
54124;DHT22;55741;53.252;5.788;2022-12-17T18:15:49;-0.90;99.90
54124;DHT22;55741;53.252;5.788;2022-12-17T18:18:15;-0.90;99.90
54124;DHT22;55741;53.252;5.788;2022-12-17T18:20:41;-0.90;99.90
54124;DHT22;55741;53.252;5.788;2022-12-17T18:23:07;-0.90;99.90
54124;DHT22;55741;53.252;5.788;2022-12-17T18:25:34;-0.90;99.90
54124;DHT22;55741;53.252;5.788;2022-12-17T18:27:59;-0.90;99.90